sensor_id;sensor_type;location;lat;lon;timestamp;temperature;humidity
22813;DHT22;11573;51.334;3.244;2023-05-27T00:01:13;11.90;99.90
22813;DHT22;11573;51.334;3.244;2023-05-27T00:03:40;11.90;99.90
22813;DHT22;11573;51.334;3.244;2023-05-27T00:06:07;11.80;99.90
22813;DHT22;11573;51.334;3.244;2023-05-27T00:08:34;11.80;99.90
22813;DHT22;11573;51.334;3.244;2023-05-27T00:11:01;11.80;99.90
22813;DHT22;11573;51.334;3.244;2023-05-27T00:13:28;11.70;99.90
22813;DHT22;11573;51.334;3.244;2023-05-27T00:15:56;11.70;99.90
22813;DHT22;11573;51.334;3.244;2023-05-27T00:18:23;11.70;99.90
22813;DHT22;11573;51.334;3.244;2023-05-27T00:20:50;11.60;99.90
22813;DHT22;11573;51.334;3.244;2023-05-27T00:23:17;11.60;99.90
22813;DHT22;11573;51.334;3.244;2023-05-27T00:25:44;11.60;99.90
22813;DHT22;11573;51.334;3.244;2023-05-27T00:28:14;11.60;99.90
22813;DHT22;11573;51.334;3.244;2023-05-27T00:30:41;11.60;99.90
22813;DHT22;11573;51.334;3.244;2023-05-27T00:33:08;11.50;99.90
22813;DHT22;11573;51.334;3.244;2023-05-27T00:35:35;11.50;99.90
22813;DHT22;11573;51.334;3.244;2023-05-27T00:38:04;11.40;99.90
22813;DHT22;11573;51.334;3.244;2023-05-27T00:40:34;11.50;99.90
22813;DHT22;11573;51.334;3.244;2023-05-27T00:43:02;11.50;99.90
22813;DHT22;11573;51.334;3.244;2023-05-27T00:45:29;11.40;99.90
22813;DHT22;11573;51.334;3.244;2023-05-27T00:47:58;11.40;99.90
22813;DHT22;11573;51.334;3.244;2023-05-27T00:50:28;11.40;99.90
22813;DHT22;11573;51.334;3.244;2023-05-27T00:52:56;11.40;99.90
22813;DHT22;11573;51.334;3.244;2023-05-27T00:55:24;11.40;99.90
22813;DHT22;11573;51.334;3.244;2023-05-27T00:57:51;11.30;99.90
22813;DHT22;11573;51.334;3.244;2023-05-27T01:00:21;11.30;99.90
22813;DHT22;11573;51.334;3.244;2023-05-27T01:02:50;11.30;99.90
22813;DHT22;11573;51.334;3.244;2023-05-27T01:05:18;11.20;99.90
22813;DHT22;11573;51.334;3.244;2023-05-27T01:10:36;11.20;99.90
22813;DHT22;11573;51.334;3.244;2023-05-27T01:15:53;11.10;99.90
22813;DHT22;11573;51.334;3.244;2023-05-27T01:18:22;11.10;99.90
22813;DHT22;11573;51.334;3.244;2023-05-27T01:20:54;11.00;99.90
22813;DHT22;11573;51.334;3.244;2023-05-27T01:23:23;11.00;99.90
22813;DHT22;11573;51.334;3.244;2023-05-27T01:25:51;10.90;99.90
22813;DHT22;11573;51.334;3.244;2023-05-27T01:28:18;10.90;99.90
22813;DHT22;11573;51.334;3.244;2023-05-27T01:30:45;10.90;99.90
22813;DHT22;11573;51.334;3.244;2023-05-27T01:33:20;10.90;99.90
22813;DHT22;11573;51.334;3.244;2023-05-27T01:35:54;10.80;99.90
22813;DHT22;11573;51.334;3.244;2023-05-27T01:38:24;10.80;99.90
22813;DHT22;11573;51.334;3.244;2023-05-27T01:40:53;10.80;99.90
22813;DHT22;11573;51.334;3.244;2023-05-27T01:43:21;10.70;99.90
22813;DHT22;11573;51.334;3.244;2023-05-27T01:45:49;10.70;99.90
22813;DHT22;11573;51.334;3.244;2023-05-27T01:48:16;10.70;99.90
22813;DHT22;11573;51.334;3.244;2023-05-27T01:50:44;10.60;99.90
22813;DHT22;11573;51.334;3.244;2023-05-27T01:53:11;10.60;99.90
22813;DHT22;11573;51.334;3.244;2023-05-27T01:55:38;10.60;99.90
22813;DHT22;11573;51.334;3.244;2023-05-27T01:58:05;10.60;99.90
22813;DHT22;11573;51.334;3.244;2023-05-27T02:00:32;10.60;99.90
22813;DHT22;11573;51.334;3.244;2023-05-27T02:02:59;10.50;99.90
22813;DHT22;11573;51.334;3.244;2023-05-27T02:05:27;10.50;99.90
22813;DHT22;11573;51.334;3.244;2023-05-27T02:07:54;10.50;99.90
22813;DHT22;11573;51.334;3.244;2023-05-27T02:10:24;10.50;99.90
22813;DHT22;11573;51.334;3.244;2023-05-27T02:12:51;10.50;99.90
22813;DHT22;11573;51.334;3.244;2023-05-27T02:15:19;10.40;99.90
22813;DHT22;11573;51.334;3.244;2023-05-27T02:17:50;10.40;99.90
22813;DHT22;11573;51.334;3.244;2023-05-27T02:20:22;10.40;99.90
22813;DHT22;11573;51.334;3.244;2023-05-27T02:22:51;10.40;99.90
22813;DHT22;11573;51.334;3.244;2023-05-27T02:25:18;10.30;99.90
22813;DHT22;11573;51.334;3.244;2023-05-27T02:27:45;10.30;99.90
22813;DHT22;11573;51.334;3.244;2023-05-27T02:30:14;10.30;99.90
22813;DHT22;11573;51.334;3.244;2023-05-27T02:32:43;10.30;99.90
22813;DHT22;11573;51.334;3.244;2023-05-27T02:35:13;10.20;99.90
22813;DHT22;11573;51.334;3.244;2023-05-27T02:37:43;10.20;99.90
22813;DHT22;11573;51.334;3.244;2023-05-27T02:40:10;10.10;99.90
22813;DHT22;11573;51.334;3.244;2023-05-27T02:42:37;10.10;99.90
22813;DHT22;11573;51.334;3.244;2023-05-27T02:45:05;10.00;99.90
22813;DHT22;11573;51.334;3.244;2023-05-27T02:47:32;10.00;99.90
22813;DHT22;11573;51.334;3.244;2023-05-27T02:49:59;10.00;99.90
22813;DHT22;11573;51.334;3.244;2023-05-27T02:52:26;10.00;99.90
22813;DHT22;11573;51.334;3.244;2023-05-27T02:54:53;10.00;99.90
22813;DHT22;11573;51.334;3.244;2023-05-27T02:57:21;10.00;99.90
22813;DHT22;11573;51.334;3.244;2023-05-27T02:59:48;10.00;99.90
22813;DHT22;11573;51.334;3.244;2023-05-27T03:02:15;10.00;99.90
22813;DHT22;11573;51.334;3.244;2023-05-27T03:04:42;10.00;99.90
22813;DHT22;11573;51.334;3.244;2023-05-27T03:07:09;10.00;99.90
22813;DHT22;11573;51.334;3.244;2023-05-27T03:09:36;10.00;99.90
22813;DHT22;11573;51.334;3.244;2023-05-27T03:12:03;10.00;99.90
22813;DHT22;11573;51.334;3.244;2023-05-27T03:14:31;10.00;99.90
22813;DHT22;11573;51.334;3.244;2023-05-27T03:16:58;10.00;99.90
22813;DHT22;11573;51.334;3.244;2023-05-27T03:19:25;10.00;99.90
22813;DHT22;11573;51.334;3.244;2023-05-27T03:21:52;10.00;99.90
22813;DHT22;11573;51.334;3.244;2023-05-27T03:24:19;10.00;99.90
22813;DHT22;11573;51.334;3.244;2023-05-27T03:26:46;10.00;99.90
22813;DHT22;11573;51.334;3.244;2023-05-27T03:29:14;10.00;99.90
22813;DHT22;11573;51.334;3.244;2023-05-27T03:31:42;10.00;99.90
22813;DHT22;11573;51.334;3.244;2023-05-27T03:34:13;10.00;99.90
22813;DHT22;11573;51.334;3.244;2023-05-27T03:36:40;10.00;99.90
22813;DHT22;11573;51.334;3.244;2023-05-27T03:39:10;10.00;99.90
22813;DHT22;11573;51.334;3.244;2023-05-27T03:41:42;10.00;99.90
22813;DHT22;11573;51.334;3.244;2023-05-27T03:44:11;10.10;99.90
22813;DHT22;11573;51.334;3.244;2023-05-27T03:46:38;10.00;99.90
22813;DHT22;11573;51.334;3.244;2023-05-27T03:49:05;10.00;99.90
22813;DHT22;11573;51.334;3.244;2023-05-27T03:51:33;10.00;99.90
22813;DHT22;11573;51.334;3.244;2023-05-27T03:54:00;10.00;99.90
22813;DHT22;11573;51.334;3.244;2023-05-27T03:56:29;10.10;99.90
22813;DHT22;11573;51.334;3.244;2023-05-27T03:58:56;10.10;99.90
22813;DHT22;11573;51.334;3.244;2023-05-27T04:01:23;10.10;99.90
22813;DHT22;11573;51.334;3.244;2023-05-27T04:03:50;10.20;99.90
22813;DHT22;11573;51.334;3.244;2023-05-27T04:06:18;10.20;99.90
22813;DHT22;11573;51.334;3.244;2023-05-27T04:08:44;10.20;99.90
22813;DHT22;11573;51.334;3.244;2023-05-27T04:11:12;10.20;99.90
22813;DHT22;11573;51.334;3.244;2023-05-27T04:13:40;10.30;99.90
22813;DHT22;11573;51.334;3.244;2023-05-27T04:16:07;10.30;99.90
22813;DHT22;11573;51.334;3.244;2023-05-27T04:18:35;10.40;99.90
22813;DHT22;11573;51.334;3.244;2023-05-27T04:21:02;10.60;99.90
22813;DHT22;11573;51.334;3.244;2023-05-27T04:23:31;10.90;99.90
22813;DHT22;11573;51.334;3.244;2023-05-27T04:25:59;11.40;99.90
22813;DHT22;11573;51.334;3.244;2023-05-27T04:28:31;11.80;99.90
22813;DHT22;11573;51.334;3.244;2023-05-27T04:30:58;12.30;99.90
22813;DHT22;11573;51.334;3.244;2023-05-27T04:33:39;12.50;99.90
22813;DHT22;11573;51.334;3.244;2023-05-27T04:36:07;12.70;99.90
22813;DHT22;11573;51.334;3.244;2023-05-27T04:38:46;13.00;99.90
22813;DHT22;11573;51.334;3.244;2023-05-27T04:41:13;13.10;99.90
22813;DHT22;11573;51.334;3.244;2023-05-27T04:43:55;13.10;99.90
22813;DHT22;11573;51.334;3.244;2023-05-27T04:46:28;13.30;99.90
22813;DHT22;11573;51.334;3.244;2023-05-27T04:48:56;13.50;99.90
22813;DHT22;11573;51.334;3.244;2023-05-27T04:51:22;13.40;99.90
22813;DHT22;11573;51.334;3.244;2023-05-27T04:53:50;13.10;99.90
22813;DHT22;11573;51.334;3.244;2023-05-27T04:56:19;13.20;99.90
22813;DHT22;11573;51.334;3.244;2023-05-27T04:58:46;13.10;99.90
22813;DHT22;11573;51.334;3.244;2023-05-27T05:01:18;13.00;99.90
22813;DHT22;11573;51.334;3.244;2023-05-27T05:03:55;12.70;99.90
22813;DHT22;11573;51.334;3.244;2023-05-27T05:06:45;12.60;99.90
22813;DHT22;11573;51.334;3.244;2023-05-27T05:09:12;12.70;99.90
22813;DHT22;11573;51.334;3.244;2023-05-27T05:11:40;13.10;99.90
22813;DHT22;11573;51.334;3.244;2023-05-27T05:14:08;13.50;99.90
22813;DHT22;11573;51.334;3.244;2023-05-27T05:16:35;14.10;99.90
22813;DHT22;11573;51.334;3.244;2023-05-27T05:19:02;14.80;99.90
22813;DHT22;11573;51.334;3.244;2023-05-27T05:21:34;15.30;99.90
22813;DHT22;11573;51.334;3.244;2023-05-27T05:24:05;15.20;99.90
22813;DHT22;11573;51.334;3.244;2023-05-27T05:26:32;15.20;99.90
22813;DHT22;11573;51.334;3.244;2023-05-27T05:29:01;15.40;99.90
22813;DHT22;11573;51.334;3.244;2023-05-27T05:31:28;15.60;99.90
22813;DHT22;11573;51.334;3.244;2023-05-27T05:33:55;15.50;99.90
22813;DHT22;11573;51.334;3.244;2023-05-27T05:36:23;15.30;99.90
22813;DHT22;11573;51.334;3.244;2023-05-27T05:38:55;15.20;99.90
22813;DHT22;11573;51.334;3.244;2023-05-27T05:41:23;15.50;99.90
22813;DHT22;11573;51.334;3.244;2023-05-27T05:43:50;15.60;99.90
22813;DHT22;11573;51.334;3.244;2023-05-27T05:46:17;15.80;99.90
22813;DHT22;11573;51.334;3.244;2023-05-27T05:48:44;15.70;99.90
22813;DHT22;11573;51.334;3.244;2023-05-27T05:51:16;15.60;99.90
22813;DHT22;11573;51.334;3.244;2023-05-27T05:53:47;15.20;99.90
22813;DHT22;11573;51.334;3.244;2023-05-27T05:56:14;14.40;99.90
22813;DHT22;11573;51.334;3.244;2023-05-27T05:58:41;13.90;99.90
22813;DHT22;11573;51.334;3.244;2023-05-27T06:01:09;13.50;99.90
22813;DHT22;11573;51.334;3.244;2023-05-27T06:03:39;13.30;99.90
22813;DHT22;11573;51.334;3.244;2023-05-27T06:06:09;13.20;99.90
22813;DHT22;11573;51.334;3.244;2023-05-27T06:08:59;13.10;99.90
22813;DHT22;11573;51.334;3.244;2023-05-27T06:11:26;12.90;99.90
22813;DHT22;11573;51.334;3.244;2023-05-27T06:13:53;12.80;99.90
22813;DHT22;11573;51.334;3.244;2023-05-27T06:16:20;12.90;99.90
22813;DHT22;11573;51.334;3.244;2023-05-27T06:18:47;13.00;99.90
22813;DHT22;11573;51.334;3.244;2023-05-27T06:21:15;13.10;99.90
22813;DHT22;11573;51.334;3.244;2023-05-27T06:24:07;13.30;99.90
22813;DHT22;11573;51.334;3.244;2023-05-27T06:26:39;13.40;99.90
22813;DHT22;11573;51.334;3.244;2023-05-27T06:29:05;13.40;99.90
22813;DHT22;11573;51.334;3.244;2023-05-27T06:31:32;13.30;99.90
22813;DHT22;11573;51.334;3.244;2023-05-27T06:34:00;13.40;99.90
22813;DHT22;11573;51.334;3.244;2023-05-27T06:36:27;13.50;99.90
22813;DHT22;11573;51.334;3.244;2023-05-27T06:38:54;13.60;99.90
22813;DHT22;11573;51.334;3.244;2023-05-27T06:41:21;13.50;99.90
22813;DHT22;11573;51.334;3.244;2023-05-27T06:44:08;13.50;99.90
22813;DHT22;11573;51.334;3.244;2023-05-27T06:46:48;13.40;99.90
22813;DHT22;11573;51.334;3.244;2023-05-27T06:49:39;13.50;99.90
22813;DHT22;11573;51.334;3.244;2023-05-27T06:52:06;13.50;99.90
22813;DHT22;11573;51.334;3.244;2023-05-27T06:55:02;13.60;99.90
22813;DHT22;11573;51.334;3.244;2023-05-27T06:58:01;14.00;99.90
22813;DHT22;11573;51.334;3.244;2023-05-27T07:00:57;14.00;99.90
22813;DHT22;11573;51.334;3.244;2023-05-27T07:03:37;14.00;99.90
22813;DHT22;11573;51.334;3.244;2023-05-27T07:06:06;14.10;99.90
22813;DHT22;11573;51.334;3.244;2023-05-27T07:08:42;14.10;99.90
22813;DHT22;11573;51.334;3.244;2023-05-27T07:11:24;14.00;99.90
22813;DHT22;11573;51.334;3.244;2023-05-27T07:13:58;14.10;99.90
22813;DHT22;11573;51.334;3.244;2023-05-27T07:16:29;14.40;99.90
22813;DHT22;11573;51.334;3.244;2023-05-27T07:18:56;14.70;99.90
22813;DHT22;11573;51.334;3.244;2023-05-27T07:21:24;14.60;99.90
22813;DHT22;11573;51.334;3.244;2023-05-27T07:23:51;14.50;99.90
22813;DHT22;11573;51.334;3.244;2023-05-27T07:26:25;14.40;99.90
22813;DHT22;11573;51.334;3.244;2023-05-27T07:28:56;14.60;99.90
22813;DHT22;11573;51.334;3.244;2023-05-27T07:31:33;14.80;99.90
22813;DHT22;11573;51.334;3.244;2023-05-27T07:34:05;15.10;99.90
22813;DHT22;11573;51.334;3.244;2023-05-27T07:36:33;15.20;99.90
22813;DHT22;11573;51.334;3.244;2023-05-27T07:39:00;15.30;99.90
22813;DHT22;11573;51.334;3.244;2023-05-27T07:41:27;15.30;99.90
22813;DHT22;11573;51.334;3.244;2023-05-27T07:43:57;15.40;99.90
22813;DHT22;11573;51.334;3.244;2023-05-27T07:46:24;15.40;99.90
22813;DHT22;11573;51.334;3.244;2023-05-27T07:48:51;15.60;99.90
22813;DHT22;11573;51.334;3.244;2023-05-27T07:51:19;15.60;99.90
22813;DHT22;11573;51.334;3.244;2023-05-27T07:53:47;15.30;99.90
22813;DHT22;11573;51.334;3.244;2023-05-27T07:56:15;15.20;99.90
22813;DHT22;11573;51.334;3.244;2023-05-27T07:58:42;15.10;99.90
22813;DHT22;11573;51.334;3.244;2023-05-27T08:01:11;15.20;99.90
22813;DHT22;11573;51.334;3.244;2023-05-27T08:03:44;15.30;99.90
22813;DHT22;11573;51.334;3.244;2023-05-27T08:06:32;15.40;99.90
22813;DHT22;11573;51.334;3.244;2023-05-27T08:09:20;15.50;99.90
22813;DHT22;11573;51.334;3.244;2023-05-27T08:12:23;15.70;99.90
22813;DHT22;11573;51.334;3.244;2023-05-27T08:15:11;15.80;99.90
22813;DHT22;11573;51.334;3.244;2023-05-27T08:18:11;15.60;99.90
22813;DHT22;11573;51.334;3.244;2023-05-27T08:20:52;15.30;99.90
22813;DHT22;11573;51.334;3.244;2023-05-27T08:23:46;15.00;99.90
22813;DHT22;11573;51.334;3.244;2023-05-27T08:26:48;14.90;99.90
22813;DHT22;11573;51.334;3.244;2023-05-27T08:29:38;14.90;99.90
22813;DHT22;11573;51.334;3.244;2023-05-27T08:32:25;14.80;99.90
22813;DHT22;11573;51.334;3.244;2023-05-27T08:34:52;15.00;99.90
22813;DHT22;11573;51.334;3.244;2023-05-27T08:37:20;15.10;99.90
22813;DHT22;11573;51.334;3.244;2023-05-27T08:39:48;14.90;99.90
22813;DHT22;11573;51.334;3.244;2023-05-27T08:42:50;14.90;99.90
22813;DHT22;11573;51.334;3.244;2023-05-27T08:45:18;15.00;99.90
22813;DHT22;11573;51.334;3.244;2023-05-27T08:47:45;14.90;99.90
22813;DHT22;11573;51.334;3.244;2023-05-27T08:50:19;14.90;99.90
22813;DHT22;11573;51.334;3.244;2023-05-27T08:52:52;15.00;99.90
22813;DHT22;11573;51.334;3.244;2023-05-27T08:55:21;15.10;99.90
22813;DHT22;11573;51.334;3.244;2023-05-27T08:57:53;15.20;99.90
22813;DHT22;11573;51.334;3.244;2023-05-27T09:00:23;15.10;99.90
22813;DHT22;11573;51.334;3.244;2023-05-27T09:02:53;15.10;99.90
22813;DHT22;11573;51.334;3.244;2023-05-27T09:05:28;15.20;99.90
22813;DHT22;11573;51.334;3.244;2023-05-27T09:07:55;15.20;99.90
22813;DHT22;11573;51.334;3.244;2023-05-27T09:10:22;15.30;99.90
22813;DHT22;11573;51.334;3.244;2023-05-27T09:12:50;15.40;99.90
22813;DHT22;11573;51.334;3.244;2023-05-27T09:15:17;15.40;99.90
22813;DHT22;11573;51.334;3.244;2023-05-27T09:17:45;15.40;99.90
22813;DHT22;11573;51.334;3.244;2023-05-27T09:20:13;15.40;99.90
22813;DHT22;11573;51.334;3.244;2023-05-27T09:22:40;15.40;99.90
22813;DHT22;11573;51.334;3.244;2023-05-27T09:25:08;15.60;99.90
22813;DHT22;11573;51.334;3.244;2023-05-27T09:27:37;15.90;99.90
22813;DHT22;11573;51.334;3.244;2023-05-27T09:30:08;15.90;99.90
22813;DHT22;11573;51.334;3.244;2023-05-27T09:32:36;16.00;99.90
22813;DHT22;11573;51.334;3.244;2023-05-27T09:35:05;16.10;99.90
22813;DHT22;11573;51.334;3.244;2023-05-27T09:37:34;16.40;99.90
22813;DHT22;11573;51.334;3.244;2023-05-27T09:40:06;16.30;99.90
22813;DHT22;11573;51.334;3.244;2023-05-27T09:42:48;16.10;99.90
22813;DHT22;11573;51.334;3.244;2023-05-27T09:45:16;15.90;99.90
22813;DHT22;11573;51.334;3.244;2023-05-27T09:47:50;15.90;99.90
22813;DHT22;11573;51.334;3.244;2023-05-27T09:50:19;15.90;99.90
22813;DHT22;11573;51.334;3.244;2023-05-27T09:52:47;15.80;99.90
22813;DHT22;11573;51.334;3.244;2023-05-27T09:55:31;15.90;99.90
22813;DHT22;11573;51.334;3.244;2023-05-27T09:58:00;16.20;99.90
22813;DHT22;11573;51.334;3.244;2023-05-27T10:00:28;16.20;99.90
22813;DHT22;11573;51.334;3.244;2023-05-27T10:02:57;16.50;99.90
22813;DHT22;11573;51.334;3.244;2023-05-27T10:05:27;16.60;99.90
22813;DHT22;11573;51.334;3.244;2023-05-27T10:07:54;16.70;99.90
22813;DHT22;11573;51.334;3.244;2023-05-27T10:10:41;16.80;99.90
22813;DHT22;11573;51.334;3.244;2023-05-27T10:13:09;16.70;99.90
22813;DHT22;11573;51.334;3.244;2023-05-27T10:15:36;16.80;99.90
22813;DHT22;11573;51.334;3.244;2023-05-27T10:18:06;16.60;99.90
22813;DHT22;11573;51.334;3.244;2023-05-27T10:20:37;16.70;99.90
22813;DHT22;11573;51.334;3.244;2023-05-27T10:23:12;16.40;99.90
22813;DHT22;11573;51.334;3.244;2023-05-27T10:25:51;16.40;99.90
22813;DHT22;11573;51.334;3.244;2023-05-27T10:28:25;16.20;99.90
22813;DHT22;11573;51.334;3.244;2023-05-27T10:31:02;16.10;99.90
22813;DHT22;11573;51.334;3.244;2023-05-27T10:33:29;16.30;99.90
22813;DHT22;11573;51.334;3.244;2023-05-27T10:36:16;16.40;99.90
22813;DHT22;11573;51.334;3.244;2023-05-27T10:38:55;16.70;99.90
22813;DHT22;11573;51.334;3.244;2023-05-27T10:41:23;16.80;99.90
22813;DHT22;11573;51.334;3.244;2023-05-27T10:43:58;16.80;99.90
22813;DHT22;11573;51.334;3.244;2023-05-27T10:46:26;16.60;99.90
22813;DHT22;11573;51.334;3.244;2023-05-27T10:48:53;16.40;99.90
22813;DHT22;11573;51.334;3.244;2023-05-27T10:51:31;16.30;99.90
22813;DHT22;11573;51.334;3.244;2023-05-27T10:54:03;16.10;99.90
22813;DHT22;11573;51.334;3.244;2023-05-27T10:56:53;16.30;99.90
22813;DHT22;11573;51.334;3.244;2023-05-27T10:59:21;16.10;99.90
22813;DHT22;11573;51.334;3.244;2023-05-27T11:01:53;15.80;99.90
22813;DHT22;11573;51.334;3.244;2023-05-27T11:04:20;16.00;99.90
22813;DHT22;11573;51.334;3.244;2023-05-27T11:06:58;16.10;99.90
22813;DHT22;11573;51.334;3.244;2023-05-27T11:09:54;16.10;99.90
22813;DHT22;11573;51.334;3.244;2023-05-27T11:12:23;16.00;99.90
22813;DHT22;11573;51.334;3.244;2023-05-27T11:14:51;16.10;99.90
22813;DHT22;11573;51.334;3.244;2023-05-27T11:17:19;16.10;99.90
22813;DHT22;11573;51.334;3.244;2023-05-27T11:19:46;15.90;99.90
22813;DHT22;11573;51.334;3.244;2023-05-27T11:22:14;15.90;99.90
22813;DHT22;11573;51.334;3.244;2023-05-27T11:24:41;15.90;99.90
22813;DHT22;11573;51.334;3.244;2023-05-27T11:27:10;16.20;99.90
22813;DHT22;11573;51.334;3.244;2023-05-27T11:29:49;16.30;99.90
22813;DHT22;11573;51.334;3.244;2023-05-27T11:32:18;16.20;99.90
22813;DHT22;11573;51.334;3.244;2023-05-27T11:34:45;16.00;99.90
22813;DHT22;11573;51.334;3.244;2023-05-27T11:37:13;16.00;99.90
22813;DHT22;11573;51.334;3.244;2023-05-27T11:39:50;16.00;99.90
22813;DHT22;11573;51.334;3.244;2023-05-27T11:42:24;16.10;99.90
22813;DHT22;11573;51.334;3.244;2023-05-27T11:44:53;16.30;99.90
22813;DHT22;11573;51.334;3.244;2023-05-27T11:47:21;16.10;99.90
22813;DHT22;11573;51.334;3.244;2023-05-27T11:49:49;15.90;99.90
22813;DHT22;11573;51.334;3.244;2023-05-27T11:52:17;16.00;99.90
22813;DHT22;11573;51.334;3.244;2023-05-27T11:54:48;16.00;99.90
22813;DHT22;11573;51.334;3.244;2023-05-27T11:57:24;15.70;99.90
22813;DHT22;11573;51.334;3.244;2023-05-27T11:59:51;15.80;99.90
22813;DHT22;11573;51.334;3.244;2023-05-27T12:02:18;15.90;99.90
22813;DHT22;11573;51.334;3.244;2023-05-27T12:04:48;16.00;99.90
22813;DHT22;11573;51.334;3.244;2023-05-27T12:07:15;16.10;99.90
22813;DHT22;11573;51.334;3.244;2023-05-27T12:09:46;15.90;99.90
22813;DHT22;11573;51.334;3.244;2023-05-27T12:12:16;15.90;99.90
22813;DHT22;11573;51.334;3.244;2023-05-27T12:14:45;15.90;99.90
22813;DHT22;11573;51.334;3.244;2023-05-27T12:17:12;15.90;99.90
22813;DHT22;11573;51.334;3.244;2023-05-27T12:19:39;15.90;99.90
22813;DHT22;11573;51.334;3.244;2023-05-27T12:22:05;16.00;99.90
22813;DHT22;11573;51.334;3.244;2023-05-27T12:24:32;16.20;99.90
22813;DHT22;11573;51.334;3.244;2023-05-27T12:27:01;16.30;99.90
22813;DHT22;11573;51.334;3.244;2023-05-27T12:29:28;16.60;99.90
22813;DHT22;11573;51.334;3.244;2023-05-27T12:31:57;16.70;99.90
22813;DHT22;11573;51.334;3.244;2023-05-27T12:34:24;16.70;99.90
22813;DHT22;11573;51.334;3.244;2023-05-27T12:36:52;16.50;99.90
22813;DHT22;11573;51.334;3.244;2023-05-27T12:39:19;16.50;99.90
22813;DHT22;11573;51.334;3.244;2023-05-27T12:41:47;16.60;99.90
22813;DHT22;11573;51.334;3.244;2023-05-27T12:44:15;16.70;99.90
22813;DHT22;11573;51.334;3.244;2023-05-27T12:46:42;16.50;99.90
22813;DHT22;11573;51.334;3.244;2023-05-27T12:49:09;16.50;99.90
22813;DHT22;11573;51.334;3.244;2023-05-27T12:51:37;16.40;99.90
22813;DHT22;11573;51.334;3.244;2023-05-27T12:54:05;16.20;99.90
22813;DHT22;11573;51.334;3.244;2023-05-27T12:56:31;16.30;99.90
22813;DHT22;11573;51.334;3.244;2023-05-27T12:58:58;16.20;99.90
22813;DHT22;11573;51.334;3.244;2023-05-27T13:01:26;16.30;99.90
22813;DHT22;11573;51.334;3.244;2023-05-27T13:03:53;16.60;99.90
22813;DHT22;11573;51.334;3.244;2023-05-27T13:06:20;16.50;99.90
22813;DHT22;11573;51.334;3.244;2023-05-27T13:08:47;16.50;99.90
22813;DHT22;11573;51.334;3.244;2023-05-27T13:11:14;16.70;99.90
22813;DHT22;11573;51.334;3.244;2023-05-27T13:13:41;16.90;99.90
22813;DHT22;11573;51.334;3.244;2023-05-27T13:16:08;16.80;99.90
22813;DHT22;11573;51.334;3.244;2023-05-27T13:18:35;16.50;99.90
22813;DHT22;11573;51.334;3.244;2023-05-27T13:21:04;16.30;99.90
22813;DHT22;11573;51.334;3.244;2023-05-27T13:23:31;16.50;99.90
22813;DHT22;11573;51.334;3.244;2023-05-27T13:25:58;16.60;99.90
22813;DHT22;11573;51.334;3.244;2023-05-27T13:28:24;16.50;99.90
22813;DHT22;11573;51.334;3.244;2023-05-27T13:30:51;16.40;99.90
22813;DHT22;11573;51.334;3.244;2023-05-27T13:33:18;16.50;99.90
22813;DHT22;11573;51.334;3.244;2023-05-27T13:35:45;16.80;99.90
22813;DHT22;11573;51.334;3.244;2023-05-27T13:38:12;16.80;99.90
22813;DHT22;11573;51.334;3.244;2023-05-27T13:40:41;16.90;99.90
22813;DHT22;11573;51.334;3.244;2023-05-27T13:43:08;16.90;99.90
22813;DHT22;11573;51.334;3.244;2023-05-27T13:45:35;16.80;99.90
22813;DHT22;11573;51.334;3.244;2023-05-27T13:48:02;16.70;99.90
22813;DHT22;11573;51.334;3.244;2023-05-27T13:50:29;16.60;99.90
22813;DHT22;11573;51.334;3.244;2023-05-27T13:52:58;16.80;99.90
22813;DHT22;11573;51.334;3.244;2023-05-27T13:55:25;16.90;99.90
22813;DHT22;11573;51.334;3.244;2023-05-27T13:57:52;16.90;99.90
22813;DHT22;11573;51.334;3.244;2023-05-27T14:00:19;16.80;99.90
22813;DHT22;11573;51.334;3.244;2023-05-27T14:02:46;16.80;99.90
22813;DHT22;11573;51.334;3.244;2023-05-27T14:05:13;16.70;99.90
22813;DHT22;11573;51.334;3.244;2023-05-27T14:07:41;16.50;99.90
22813;DHT22;11573;51.334;3.244;2023-05-27T14:10:10;16.50;99.90
22813;DHT22;11573;51.334;3.244;2023-05-27T14:12:37;16.80;99.90
22813;DHT22;11573;51.334;3.244;2023-05-27T14:15:05;16.90;99.90
22813;DHT22;11573;51.334;3.244;2023-05-27T14:17:32;17.00;99.90
22813;DHT22;11573;51.334;3.244;2023-05-27T14:19:59;17.00;99.90
22813;DHT22;11573;51.334;3.244;2023-05-27T14:22:26;17.00;99.90
22813;DHT22;11573;51.334;3.244;2023-05-27T14:24:54;17.00;99.90
22813;DHT22;11573;51.334;3.244;2023-05-27T14:27:21;16.60;99.90
22813;DHT22;11573;51.334;3.244;2023-05-27T14:29:48;16.60;99.90
22813;DHT22;11573;51.334;3.244;2023-05-27T14:32:15;16.60;99.90
22813;DHT22;11573;51.334;3.244;2023-05-27T14:34:42;16.70;99.90
22813;DHT22;11573;51.334;3.244;2023-05-27T14:37:09;16.90;99.90
22813;DHT22;11573;51.334;3.244;2023-05-27T14:39:36;16.80;99.90
22813;DHT22;11573;51.334;3.244;2023-05-27T14:42:03;16.80;99.90
22813;DHT22;11573;51.334;3.244;2023-05-27T14:44:33;16.90;99.90
22813;DHT22;11573;51.334;3.244;2023-05-27T14:47:00;16.90;99.90
22813;DHT22;11573;51.334;3.244;2023-05-27T14:49:27;17.00;99.90
22813;DHT22;11573;51.334;3.244;2023-05-27T14:51:54;17.00;99.90
22813;DHT22;11573;51.334;3.244;2023-05-27T14:54:21;17.10;99.90
22813;DHT22;11573;51.334;3.244;2023-05-27T14:56:48;17.10;99.90
22813;DHT22;11573;51.334;3.244;2023-05-27T14:59:15;17.20;99.90
22813;DHT22;11573;51.334;3.244;2023-05-27T15:01:42;17.20;99.90
22813;DHT22;11573;51.334;3.244;2023-05-27T15:04:10;17.10;99.90
22813;DHT22;11573;51.334;3.244;2023-05-27T15:06:37;16.80;99.90
22813;DHT22;11573;51.334;3.244;2023-05-27T15:09:04;16.70;99.90
22813;DHT22;11573;51.334;3.244;2023-05-27T15:11:31;16.80;99.90
22813;DHT22;11573;51.334;3.244;2023-05-27T15:13:58;17.00;99.90
22813;DHT22;11573;51.334;3.244;2023-05-27T15:16:26;17.10;99.90
22813;DHT22;11573;51.334;3.244;2023-05-27T15:18:54;17.30;99.90
22813;DHT22;11573;51.334;3.244;2023-05-27T15:21:22;17.30;99.90
22813;DHT22;11573;51.334;3.244;2023-05-27T15:23:50;17.30;99.90
22813;DHT22;11573;51.334;3.244;2023-05-27T15:26:17;17.40;99.90
22813;DHT22;11573;51.334;3.244;2023-05-27T15:28:44;17.30;99.90
22813;DHT22;11573;51.334;3.244;2023-05-27T15:31:11;17.30;99.90
22813;DHT22;11573;51.334;3.244;2023-05-27T15:33:38;17.30;99.90
22813;DHT22;11573;51.334;3.244;2023-05-27T15:36:07;17.10;99.90
22813;DHT22;11573;51.334;3.244;2023-05-27T15:38:36;17.20;99.90
22813;DHT22;11573;51.334;3.244;2023-05-27T15:41:03;17.00;99.90
22813;DHT22;11573;51.334;3.244;2023-05-27T15:43:29;17.00;99.90
22813;DHT22;11573;51.334;3.244;2023-05-27T15:45:56;17.10;99.90
22813;DHT22;11573;51.334;3.244;2023-05-27T15:48:31;17.10;99.90
22813;DHT22;11573;51.334;3.244;2023-05-27T15:50:58;17.20;99.90
22813;DHT22;11573;51.334;3.244;2023-05-27T15:53:25;17.30;99.90